createdAt,value
2018-12-18T00:00:05.613Z,64.90
2018-12-18T00:02:31.879Z,64.70
2018-12-18T00:04:58.197Z,64.70
2018-12-18T00:07:24.444Z,64.50
2018-12-18T00:09:50.660Z,64.50
2018-12-18T00:12:17.161Z,64.50
2018-12-18T00:14:43.400Z,64.70
2018-12-18T00:17:09.645Z,65.00
2018-12-18T00:19:35.886Z,64.90
2018-12-18T00:22:02.141Z,65.10
2018-12-18T00:24:28.402Z,65.50
2018-12-18T00:26:54.652Z,65.60
2018-12-18T00:29:20.869Z,65.90
2018-12-18T00:31:47.133Z,66.20
2018-12-18T00:34:16.481Z,66.50
2018-12-18T00:36:43.455Z,66.70
2018-12-18T00:39:09.704Z,66.60
2018-12-18T00:41:35.941Z,66.60
2018-12-18T00:44:02.176Z,66.50
2018-12-18T00:46:28.547Z,66.60
2018-12-18T00:48:55.519Z,67.00
2018-12-18T00:51:21.770Z,67.00
2018-12-18T00:53:48.051Z,67.10
2018-12-18T00:56:15.007Z,66.60
2018-12-18T00:58:41.235Z,66.60
2018-12-18T01:01:07.470Z,66.40
2018-12-18T01:03:33.691Z,66.70
2018-12-18T01:05:59.913Z,67.20
2018-12-18T01:08:26.163Z,67.10
2018-12-18T01:10:52.376Z,67.10
2018-12-18T01:13:18.609Z,67.20
2018-12-18T01:15:44.825Z,67.20
2018-12-18T01:18:11.109Z,67.20
2018-12-18T01:20:38.827Z,67.30
2018-12-18T01:23:05.038Z,68.00
2018-12-18T01:25:31.265Z,67.40
2018-12-18T01:27:57.513Z,67.00
2018-12-18T01:30:23.727Z,67.40
2018-12-18T01:32:49.966Z,67.60
2018-12-18T01:35:16.177Z,67.70
2018-12-18T01:37:43.135Z,67.80
2018-12-18T01:40:09.388Z,67.80
2018-12-18T01:42:35.603Z,68.00
2018-12-18T01:45:02.179Z,67.90
2018-12-18T01:47:28.408Z,67.90
2018-12-18T01:49:54.641Z,67.90
2018-12-18T01:52:20.872Z,68.00
2018-12-18T01:54:47.080Z,67.90
2018-12-18T01:57:13.302Z,67.40
2018-12-18T01:59:40.280Z,67.80
2018-12-18T02:02:07.220Z,67.80
2018-12-18T02:04:34.188Z,67.90
2018-12-18T02:07:00.392Z,67.90
2018-12-18T02:09:27.365Z,67.60
2018-12-18T02:11:53.600Z,67.50
2018-12-18T02:14:19.816Z,67.30
2018-12-18T02:16:46.038Z,67.40
2018-12-18T02:19:12.263Z,67.00
2018-12-18T02:21:38.501Z,67.40
2018-12-18T02:24:04.745Z,67.40
2018-12-18T02:26:30.979Z,67.30
2018-12-18T02:28:57.191Z,67.30
2018-12-18T02:31:23.432Z,67.30
2018-12-18T02:33:49.660Z,67.30
2018-12-18T02:36:15.862Z,67.50
2018-12-18T02:38:42.092Z,67.50
2018-12-18T02:41:08.323Z,67.40
2018-12-18T02:43:34.527Z,67.50
2018-12-18T02:46:01.807Z,67.50
2018-12-18T02:48:28.027Z,67.50
2018-12-18T02:50:54.251Z,67.10
2018-12-18T02:53:20.481Z,67.50
2018-12-18T02:55:46.712Z,67.60
2018-12-18T02:58:13.007Z,67.30
2018-12-18T03:00:39.167Z,66.70
2018-12-18T03:03:05.380Z,66.90
2018-12-18T03:05:31.601Z,66.70
2018-12-18T03:07:57.821Z,66.60
2018-12-18T03:10:24.781Z,67.30
2018-12-18T03:12:51.010Z,67.30
2018-12-18T03:15:17.244Z,67.00
2018-12-18T03:17:43.859Z,66.80
2018-12-18T03:20:10.856Z,67.00
2018-12-18T03:22:37.056Z,66.80
2018-12-18T03:25:03.601Z,66.30
2018-12-18T03:27:29.828Z,65.90
2018-12-18T03:29:56.072Z,66.20
2018-12-18T03:32:22.343Z,64.80
2018-12-18T03:34:49.292Z,65.20
2018-12-18T03:37:16.239Z,65.90
2018-12-18T03:39:43.193Z,65.70
2018-12-18T03:42:09.468Z,65.70
2018-12-18T03:44:35.685Z,66.30
2018-12-18T03:47:01.928Z,65.20
2018-12-18T03:49:28.166Z,65.10
2018-12-18T03:51:54.412Z,65.50
2018-12-18T03:54:20.605Z,64.80
2018-12-18T03:56:47.208Z,64.90
2018-12-18T03:59:13.417Z,64.50
2018-12-18T04:01:39.622Z,64.40
2018-12-18T04:04:06.868Z,64.30
2018-12-18T04:06:33.059Z,64.20
2018-12-18T04:08:59.281Z,65.60
2018-12-18T04:11:25.498Z,65.10
2018-12-18T04:13:51.754Z,65.80
2018-12-18T04:16:17.955Z,65.30
2018-12-18T04:18:44.159Z,65.50
2018-12-18T04:23:38.993Z,62.70
2018-12-18T04:26:05.243Z,62.70
2018-12-18T04:28:31.472Z,64.10
2018-12-18T04:30:58.030Z,64.10
2018-12-18T04:33:24.229Z,64.50
2018-12-18T04:35:50.435Z,64.10
2018-12-18T04:38:17.550Z,64.00
2018-12-18T04:40:43.803Z,64.10
2018-12-18T04:43:10.016Z,64.00
2018-12-18T04:45:36.308Z,63.30
2018-12-18T04:48:02.872Z,63.90
2018-12-18T04:50:29.071Z,63.40
2018-12-18T04:52:56.060Z,63.80
2018-12-18T04:55:22.292Z,63.90
2018-12-18T04:57:48.500Z,63.70
2018-12-18T05:00:14.768Z,63.70
2018-12-18T05:02:41.328Z,63.70
2018-12-18T05:05:08.308Z,63.70
2018-12-18T05:07:35.259Z,63.70
2018-12-18T05:10:01.584Z,63.70
2018-12-18T05:12:27.815Z,63.70
2018-12-18T05:14:54.634Z,63.70
2018-12-18T05:17:21.596Z,62.90
2018-12-18T05:19:47.817Z,62.90
2018-12-18T05:22:14.815Z,63.90
2018-12-18T05:24:41.132Z,63.90
2018-12-18T05:27:07.368Z,63.50
2018-12-18T05:29:33.646Z,64.50
2018-12-18T05:32:00.629Z,63.50
2018-12-18T05:34:26.891Z,63.50
2018-12-18T05:36:53.373Z,63.50
2018-12-18T05:39:19.600Z,64.60
2018-12-18T05:41:45.828Z,63.50
2018-12-18T05:44:12.102Z,63.50
2018-12-18T05:46:38.459Z,63.50
2018-12-18T05:49:05.492Z,63.10
2018-12-18T05:51:32.490Z,63.90
2018-12-18T05:53:58.732Z,63.40
2018-12-18T05:56:24.943Z,62.90
2018-12-18T05:58:51.180Z,63.40
2018-12-18T06:01:17.406Z,63.30
2018-12-18T06:03:43.656Z,63.30
2018-12-18T06:06:09.860Z,62.80
2018-12-18T06:08:36.080Z,62.90
2018-12-18T06:11:02.320Z,63.30
2018-12-18T06:13:29.309Z,62.50
2018-12-18T06:15:56.293Z,61.90
2018-12-18T06:18:22.509Z,61.90
2018-12-18T06:20:48.732Z,62.70
2018-12-18T06:23:15.476Z,62.80
2018-12-18T06:25:41.717Z,63.00
2018-12-18T06:28:07.932Z,63.10
2018-12-18T06:30:34.172Z,63.30
2018-12-18T06:33:00.392Z,63.20
2018-12-18T06:35:26.609Z,63.20
2018-12-18T06:37:52.828Z,63.20
2018-12-18T06:40:19.080Z,62.10
2018-12-18T06:42:45.295Z,62.90
2018-12-18T06:45:11.604Z,62.80
2018-12-18T06:47:38.572Z,63.70
2018-12-18T06:50:04.797Z,63.70
2018-12-18T06:52:31.012Z,63.60
2018-12-18T06:54:57.266Z,63.50
2018-12-18T06:57:23.500Z,63.20
2018-12-18T06:59:49.719Z,63.30
2018-12-18T07:02:15.976Z,63.00
2018-12-18T07:04:42.208Z,63.00
2018-12-18T07:07:08.449Z,63.20
2018-12-18T07:09:34.675Z,62.80
2018-12-18T07:12:01.666Z,63.70
2018-12-18T07:14:27.907Z,63.00
2018-12-18T07:16:54.157Z,62.90
2018-12-18T07:19:20.435Z,62.90
2018-12-18T07:21:46.655Z,62.80
2018-12-18T07:24:14.275Z,63.00
2018-12-18T07:26:39.223Z,61.90
2018-12-18T07:29:05.559Z,62.80
2018-12-18T07:31:31.839Z,62.20
2018-12-18T07:33:58.086Z,62.80
2018-12-18T07:36:25.060Z,62.80
2018-12-18T07:38:51.535Z,62.80
2018-12-18T07:41:17.812Z,62.80
2018-12-18T07:43:44.049Z,62.80
2018-12-18T07:46:10.375Z,62.80
2018-12-18T07:48:36.640Z,62.80
2018-12-18T07:51:02.879Z,62.80
2018-12-18T07:53:29.454Z,62.80
2018-12-18T07:56:00.260Z,62.60
2018-12-18T07:58:22.048Z,63.00
2018-12-18T08:00:48.356Z,62.80
2018-12-18T08:03:14.568Z,62.80
2018-12-18T08:05:40.800Z,62.80
2018-12-18T08:08:07.092Z,62.80
2018-12-18T08:10:33.319Z,62.80
2018-12-18T08:12:59.559Z,62.80
2018-12-18T08:15:26.531Z,63.50
2018-12-18T08:17:52.768Z,63.50
2018-12-18T08:20:19.722Z,64.20
2018-12-18T08:22:45.966Z,64.10
2018-12-18T08:25:12.220Z,64.60
2018-12-18T08:27:38.444Z,64.50
2018-12-18T08:30:04.692Z,64.60
2018-12-18T08:32:31.680Z,64.70
2018-12-18T08:34:57.932Z,64.60
2018-12-18T08:37:24.148Z,64.40
2018-12-18T08:39:50.720Z,64.60
2018-12-18T08:42:17.701Z,64.40
2018-12-18T08:44:44.774Z,64.40
2018-12-18T08:47:11.017Z,63.90
2018-12-18T08:49:37.228Z,64.10
2018-12-18T08:52:03.459Z,64.20
2018-12-18T08:54:29.697Z,64.30
2018-12-18T08:56:55.892Z,64.50
2018-12-18T08:59:22.097Z,64.70
2018-12-18T09:01:48.312Z,63.30
2018-12-18T09:04:15.324Z,62.60
2018-12-18T09:06:41.544Z,62.60
2018-12-18T09:09:07.785Z,62.10
2018-12-18T09:11:33.996Z,61.70
2018-12-18T09:14:00.248Z,61.60
2018-12-18T09:16:32.655Z,61.10
2018-12-18T09:18:58.885Z,62.00
2018-12-18T09:21:25.720Z,60.90
2018-12-18T09:23:51.934Z,60.20
2018-12-18T09:26:18.903Z,60.60
2018-12-18T09:28:45.135Z,60.50
2018-12-18T09:31:11.430Z,59.70
2018-12-18T09:33:37.653Z,60.60
2018-12-18T09:36:04.667Z,60.20
2018-12-18T09:38:37.045Z,60.10
2018-12-18T09:41:09.890Z,59.60
2018-12-18T09:43:41.638Z,59.70
2018-12-18T09:46:07.942Z,58.80
2018-12-18T09:48:34.918Z,57.40
2018-12-18T09:51:01.516Z,57.40
2018-12-18T09:53:27.738Z,59.40
2018-12-18T09:55:54.005Z,59.90
2018-12-18T09:58:20.236Z,59.10
2018-12-18T10:00:46.731Z,59.10
2018-12-18T10:03:13.763Z,60.10
2018-12-18T10:05:40.100Z,60.00
2018-12-18T10:08:06.342Z,59.10
2018-12-18T10:10:33.389Z,59.70
2018-12-18T10:12:59.683Z,59.50
2018-12-18T10:15:25.923Z,57.50
2018-12-18T10:17:52.129Z,58.20
2018-12-18T10:20:18.365Z,57.30
2018-12-18T10:22:44.595Z,57.00
2018-12-18T10:25:10.871Z,56.50
2018-12-18T10:27:38.199Z,55.40
2018-12-18T10:30:06.256Z,55.40
2018-12-18T10:32:32.464Z,56.10
2018-12-18T10:34:58.672Z,56.10
2018-12-18T10:37:24.930Z,56.20
2018-12-18T10:39:51.180Z,55.70
2018-12-18T10:42:18.138Z,56.50
2018-12-18T10:44:44.448Z,55.50
2018-12-18T10:47:11.092Z,53.80
2018-12-18T10:49:37.280Z,53.50
2018-12-18T10:52:03.503Z,53.90
2018-12-18T10:54:29.756Z,54.40
2018-12-18T10:56:55.988Z,53.40
2018-12-18T10:59:23.700Z,53.70
2018-12-18T11:01:49.961Z,53.70
2018-12-18T11:04:16.184Z,53.80
2018-12-18T11:06:42.663Z,54.50
2018-12-18T11:09:09.625Z,55.50
2018-12-18T11:11:36.590Z,54.50
2018-12-18T11:14:02.893Z,54.50
2018-12-18T11:16:29.148Z,54.60
2018-12-18T11:18:55.351Z,53.50
2018-12-18T11:21:21.615Z,51.80
2018-12-18T11:23:47.816Z,52.00
2018-12-18T11:26:14.068Z,52.20
2018-12-18T11:28:40.316Z,50.60
2018-12-18T11:31:06.559Z,50.20
2018-12-18T11:33:32.781Z,50.00
2018-12-18T11:35:59.005Z,50.10
2018-12-18T11:38:25.208Z,50.00
2018-12-18T11:40:51.424Z,49.60
2018-12-18T11:43:17.677Z,48.90
2018-12-18T11:45:44.016Z,48.90
2018-12-18T11:48:10.246Z,49.30
2018-12-18T11:50:36.443Z,48.60
2018-12-18T11:53:02.682Z,48.40
2018-12-18T11:55:29.661Z,50.00
2018-12-18T11:57:56.619Z,49.30
2018-12-18T12:00:22.900Z,49.30
2018-12-18T12:02:49.122Z,46.80
2018-12-18T12:05:15.352Z,47.90
2018-12-18T12:07:41.574Z,48.90
2018-12-18T12:10:07.827Z,46.90
2018-12-18T12:12:34.763Z,47.10
2018-12-18T12:15:01.021Z,47.10
2018-12-18T12:17:28.015Z,48.10
2018-12-18T12:19:54.216Z,48.10
2018-12-18T12:22:20.713Z,48.40
2018-12-18T12:24:46.946Z,48.00
2018-12-18T12:27:20.120Z,48.30
2018-12-18T12:29:46.324Z,48.10
2018-12-18T12:32:12.551Z,48.40
2018-12-18T12:34:38.780Z,49.00
2018-12-18T12:37:05.048Z,49.00
2018-12-18T12:39:32.012Z,49.30
2018-12-18T12:41:58.239Z,49.30
2018-12-18T12:44:25.169Z,49.70
2018-12-18T12:46:52.156Z,48.60
2018-12-18T12:49:18.448Z,48.60
2018-12-18T12:51:45.392Z,49.60
2018-12-18T12:54:11.613Z,49.70
2018-12-18T12:56:38.607Z,50.00
2018-12-18T12:59:04.824Z,50.00
2018-12-18T13:01:31.040Z,50.50
2018-12-18T13:03:57.348Z,50.70
2018-12-18T13:06:24.323Z,50.20
2018-12-18T13:08:50.536Z,50.20
2018-12-18T13:11:16.764Z,50.30
2018-12-18T13:13:42.996Z,50.80
2018-12-18T13:16:16.190Z,50.30
2018-12-18T13:18:42.425Z,50.40
2018-12-18T13:21:08.796Z,51.30
2018-12-18T13:23:35.749Z,50.00
2018-12-18T13:26:01.988Z,50.10
2018-12-18T13:28:28.369Z,50.40
2018-12-18T13:30:54.561Z,51.00
2018-12-18T13:33:20.771Z,49.60
2018-12-18T13:35:47.027Z,49.90
2018-12-18T13:38:14.006Z,50.40
2018-12-18T13:40:40.281Z,50.30
2018-12-18T13:43:06.545Z,50.70
2018-12-18T13:45:32.793Z,51.30
2018-12-18T13:47:59.028Z,50.50
2018-12-18T13:50:25.261Z,50.30
2018-12-18T13:52:51.479Z,50.50
2018-12-18T13:55:17.696Z,50.80
2018-12-18T13:57:43.953Z,51.30
2018-12-18T14:00:10.944Z,51.30
2018-12-18T14:02:37.160Z,51.20
2018-12-18T14:05:03.440Z,51.50
2018-12-18T14:07:29.811Z,50.40
2018-12-18T14:09:56.080Z,50.70
2018-12-18T14:12:22.321Z,51.10
2018-12-18T14:14:48.591Z,50.20
2018-12-18T14:17:14.819Z,50.50
2018-12-18T14:19:41.037Z,50.60
2018-12-18T14:22:08.028Z,50.40
2018-12-18T14:24:34.239Z,50.40
2018-12-18T14:27:00.484Z,49.80
2018-12-18T14:29:26.700Z,50.10
2018-12-18T14:31:52.955Z,50.00
2018-12-18T14:34:19.221Z,49.50
2018-12-18T14:36:45.459Z,50.30
2018-12-18T14:39:11.712Z,50.10
2018-12-18T14:41:37.940Z,50.50
2018-12-18T14:44:04.168Z,50.10
2018-12-18T14:46:30.473Z,50.40
2018-12-18T14:48:56.715Z,49.90
2018-12-18T14:51:22.946Z,50.00
2018-12-18T14:53:49.210Z,49.60
2018-12-18T14:56:15.443Z,50.00
2018-12-18T14:58:41.662Z,50.60
2018-12-18T15:01:08.115Z,49.80
2018-12-18T15:03:35.078Z,50.90
2018-12-18T15:06:02.052Z,50.80
2018-12-18T15:08:28.305Z,50.80
2018-12-18T15:10:54.597Z,49.60
2018-12-18T15:13:20.870Z,50.10
2018-12-18T15:15:47.072Z,51.70
2018-12-18T15:18:13.297Z,48.90
2018-12-18T15:20:41.757Z,50.00
2018-12-18T15:23:08.135Z,51.30
2018-12-18T15:25:34.352Z,51.50
2018-12-18T15:28:00.615Z,51.30
2018-12-18T15:30:27.604Z,51.40
2018-12-18T15:32:53.902Z,51.40
2018-12-18T15:35:20.903Z,52.20
2018-12-18T15:37:47.196Z,52.20
2018-12-18T15:40:13.435Z,50.10
2018-12-18T15:42:39.656Z,50.20
2018-12-18T15:45:05.966Z,50.00
2018-12-18T15:47:32.308Z,51.30
2018-12-18T15:49:59.197Z,50.10
2018-12-18T15:52:25.431Z,49.60
2018-12-18T15:54:51.637Z,48.60
2018-12-18T15:57:18.125Z,48.00
2018-12-18T15:59:44.344Z,47.80
2018-12-18T16:02:10.580Z,47.10
2018-12-18T16:04:36.805Z,46.80
2018-12-18T16:07:03.029Z,47.40
2018-12-18T16:09:29.242Z,47.60
2018-12-18T16:11:56.237Z,46.30
2018-12-18T16:14:22.484Z,46.30
2018-12-18T16:16:48.721Z,46.80
2018-12-18T16:19:14.956Z,48.00
2018-12-18T16:21:41.191Z,47.50
2018-12-18T16:24:08.437Z,46.60
2018-12-18T16:26:34.631Z,46.60
2018-12-18T16:29:00.863Z,47.10
2018-12-18T16:31:27.135Z,47.40
2018-12-18T16:33:54.122Z,47.00
2018-12-18T16:36:20.358Z,47.00
2018-12-18T16:38:46.591Z,46.90
2018-12-18T16:41:12.898Z,47.20
2018-12-18T16:43:39.100Z,46.60
2018-12-18T16:46:05.379Z,47.40
2018-12-18T16:48:31.612Z,46.70
2018-12-18T16:50:57.846Z,46.60
2018-12-18T16:53:24.829Z,46.80
2018-12-18T16:55:51.076Z,46.70
2018-12-18T16:58:17.293Z,47.00
2018-12-18T17:00:43.539Z,46.20
2018-12-18T17:03:09.792Z,46.10
2018-12-18T17:05:36.085Z,46.60
2018-12-18T17:08:02.609Z,46.60
2018-12-18T17:10:28.872Z,46.40
2018-12-18T17:12:55.136Z,46.40
2018-12-18T17:15:21.415Z,47.30
2018-12-18T17:17:47.879Z,46.90
2018-12-18T17:20:14.124Z,47.10
2018-12-18T17:22:40.375Z,46.30
2018-12-18T17:25:06.660Z,46.00
2018-12-18T17:27:33.688Z,45.90
2018-12-18T17:29:59.956Z,46.00
2018-12-18T17:32:26.922Z,46.80
2018-12-18T17:34:53.164Z,46.80
2018-12-18T17:37:20.327Z,47.10
2018-12-18T17:39:46.620Z,45.60
2018-12-18T17:42:13.884Z,46.40
2018-12-18T17:44:41.123Z,46.40
2018-12-18T17:47:07.208Z,46.40
2018-12-18T17:49:33.493Z,46.40
2018-12-18T17:51:59.743Z,46.60
2018-12-18T17:54:26.013Z,46.30
2018-12-18T17:56:52.252Z,46.40
2018-12-18T17:59:19.254Z,47.30
2018-12-18T18:01:45.520Z,47.20
2018-12-18T18:04:12.534Z,47.20
2018-12-18T18:06:38.860Z,47.10
2018-12-18T18:09:05.130Z,47.30
2018-12-18T18:11:32.122Z,48.50
2018-12-18T18:13:58.405Z,48.40
2018-12-18T18:16:24.696Z,48.60
2018-12-18T18:18:50.915Z,49.60
2018-12-18T18:21:17.200Z,49.90
2018-12-18T18:23:44.186Z,48.90
2018-12-18T18:26:10.519Z,48.80
2018-12-18T18:28:37.784Z,48.40
2018-12-18T18:31:04.028Z,47.70
2018-12-18T18:33:30.283Z,47.10
2018-12-18T18:35:56.534Z,47.90
2018-12-18T18:38:22.795Z,48.40
2018-12-18T18:40:49.042Z,48.40
2018-12-18T18:43:15.318Z,48.20
2018-12-18T18:45:41.617Z,48.40
2018-12-18T18:48:07.856Z,48.20
2018-12-18T18:50:34.129Z,48.60
2018-12-18T18:53:00.360Z,48.80
2018-12-18T18:55:26.627Z,48.50
2018-12-18T18:57:53.614Z,49.40
2018-12-18T19:00:19.904Z,49.30
2018-12-18T19:02:46.159Z,49.40
2018-12-18T19:05:12.525Z,49.70
2018-12-18T19:07:38.817Z,49.50
2018-12-18T19:10:05.126Z,49.80
2018-12-18T19:12:31.413Z,49.50
2018-12-18T19:14:57.723Z,50.00
2018-12-18T19:17:24.064Z,50.10
2018-12-18T19:19:50.363Z,50.00
2018-12-18T19:22:16.620Z,49.90
2018-12-18T19:24:42.945Z,49.50
2018-12-18T19:27:09.346Z,49.80
2018-12-18T19:29:35.613Z,50.00
2018-12-18T19:32:02.068Z,50.40
2018-12-18T19:34:29.114Z,50.60
2018-12-18T19:36:55.372Z,50.40
2018-12-18T19:39:21.692Z,50.70
2018-12-18T19:41:48.686Z,50.30
2018-12-18T19:44:14.912Z,50.30
2018-12-18T19:46:41.207Z,50.20
2018-12-18T19:49:07.521Z,50.20
2018-12-18T19:51:33.860Z,50.60
2018-12-18T19:54:00.097Z,50.60
2018-12-18T19:56:26.477Z,50.70
2018-12-18T19:58:53.320Z,50.70
2018-12-18T20:01:20.451Z,50.80
2018-12-18T20:03:46.709Z,50.60
2018-12-18T20:06:13.723Z,51.00
2018-12-18T20:08:39.978Z,50.90
2018-12-18T20:11:06.222Z,51.00
2018-12-18T20:13:32.517Z,50.80
2018-12-18T20:15:59.077Z,51.00
2018-12-18T20:18:26.069Z,51.30
2018-12-18T20:20:52.345Z,51.30
2018-12-18T20:23:19.521Z,50.60
2018-12-18T20:25:46.037Z,50.60
2018-12-18T20:28:13.099Z,49.90
2018-12-18T20:30:41.148Z,50.20
2018-12-18T20:33:08.176Z,50.00
2018-12-18T20:35:34.999Z,50.00
2018-12-18T20:38:01.331Z,50.00
2018-12-18T20:40:27.572Z,49.60
2018-12-18T20:42:53.846Z,49.20
2018-12-18T20:45:20.180Z,49.50
2018-12-18T20:47:46.431Z,49.60
2018-12-18T20:50:12.983Z,49.60
2018-12-18T20:52:39.225Z,49.40
2018-12-18T20:55:05.525Z,50.00
2018-12-18T20:57:31.744Z,49.90
2018-12-18T20:59:58.928Z,49.60
2018-12-18T21:02:25.210Z,49.40
2018-12-18T21:04:52.289Z,49.30
2018-12-18T21:07:18.570Z,49.30
2018-12-18T21:09:44.816Z,49.70
2018-12-18T21:12:11.057Z,49.40
2018-12-18T21:14:37.305Z,49.70
2018-12-18T21:17:03.558Z,49.70
2018-12-18T21:19:30.494Z,49.50
2018-12-18T21:21:56.953Z,50.40
2018-12-18T21:24:23.192Z,50.30
2018-12-18T21:26:49.406Z,50.80
2018-12-18T21:29:16.753Z,50.80
2018-12-18T21:31:43.723Z,50.90
2018-12-18T21:34:10.199Z,50.80
2018-12-18T21:36:37.069Z,51.90
2018-12-18T21:39:04.096Z,52.40
2018-12-18T21:41:30.353Z,52.30
2018-12-18T21:43:57.423Z,52.30
2018-12-18T21:46:24.077Z,52.30
2018-12-18T21:48:50.289Z,51.30
2018-12-18T21:51:16.574Z,52.10
2018-12-18T21:53:42.840Z,52.80
2018-12-18T21:56:09.270Z,52.90
2018-12-18T21:58:35.499Z,52.30
2018-12-18T22:01:02.390Z,53.10
2018-12-18T22:03:28.615Z,52.30
2018-12-18T22:05:54.867Z,52.10
2018-12-18T22:08:21.821Z,51.90
2018-12-18T22:10:48.787Z,52.10
2018-12-18T22:13:15.003Z,52.00
2018-12-18T22:15:41.971Z,52.40
2018-12-18T22:18:09.299Z,52.40
2018-12-18T22:20:34.445Z,51.90
2018-12-18T22:23:00.891Z,52.10
2018-12-18T22:25:27.096Z,53.60
2018-12-18T22:27:53.331Z,53.70
2018-12-18T22:30:19.602Z,53.50
2018-12-18T22:32:46.575Z,54.10
2018-12-18T22:35:12.833Z,54.10
2018-12-18T22:37:39.264Z,54.60
2018-12-18T22:40:05.497Z,55.20
2018-12-18T22:42:31.703Z,55.60
2018-12-18T22:44:57.982Z,55.70
2018-12-18T22:47:24.962Z,55.60
2018-12-18T22:49:51.189Z,55.60
2018-12-18T22:52:17.408Z,55.90
2018-12-18T22:54:43.611Z,55.70
2018-12-18T22:57:09.868Z,54.90
2018-12-18T22:59:36.104Z,55.10
2018-12-18T23:02:02.683Z,55.70
2018-12-18T23:04:28.928Z,55.60
2018-12-18T23:06:55.130Z,56.00
2018-12-18T23:09:21.364Z,55.90
2018-12-18T23:11:47.584Z,56.50
2018-12-18T23:14:13.827Z,56.30
2018-12-18T23:16:40.051Z,56.20
2018-12-18T23:19:06.776Z,55.80
2018-12-18T23:21:33.004Z,56.20
2018-12-18T23:23:59.225Z,55.90
2018-12-18T23:26:25.472Z,56.60
2018-12-18T23:28:51.709Z,56.90
2018-12-18T23:31:18.828Z,57.00
2018-12-18T23:33:45.032Z,56.90
2018-12-18T23:36:11.251Z,56.90
2018-12-18T23:38:37.528Z,56.60
2018-12-18T23:41:03.733Z,56.90
2018-12-18T23:43:30.034Z,56.90
2018-12-18T23:45:56.334Z,56.90
2018-12-18T23:48:23.299Z,56.80
2018-12-18T23:50:49.508Z,56.80
2018-12-18T23:53:16.463Z,56.80
2018-12-18T23:55:42.668Z,56.80
2018-12-18T23:58:08.904Z,56.90
